createdAt,value
2022-09-26T00:01:26.667Z,10.63
2022-09-26T00:03:59.607Z,9.57
2022-09-26T00:06:27.352Z,9.13
2022-09-26T00:08:54.866Z,8.80
2022-09-26T00:11:24.925Z,8.73
2022-09-26T00:13:54.124Z,9.07
2022-09-26T00:16:21.921Z,8.45
2022-09-26T00:18:54.686Z,8.27
2022-09-26T00:21:22.974Z,8.07
2022-09-26T00:23:50.351Z,7.97
2022-09-26T00:26:19.313Z,7.63
2022-09-26T00:28:46.300Z,7.75
2022-09-26T00:31:19.806Z,7.22
2022-09-26T00:33:47.248Z,7.85
2022-09-26T00:36:14.514Z,7.40
2022-09-26T00:38:41.813Z,7.70
2022-09-26T00:41:09.514Z,8.27
2022-09-26T00:43:45.540Z,8.05
2022-09-26T00:46:18.595Z,8.20
2022-09-26T00:48:49.067Z,7.55
2022-09-26T00:51:16.119Z,7.43
2022-09-26T00:53:47.078Z,6.88
2022-09-26T00:58:55.178Z,6.85
2022-09-26T01:01:22.700Z,7.05
2022-09-26T01:03:51.419Z,10.52
2022-09-26T01:06:19.538Z,7.38
2022-09-26T01:08:56.464Z,8.15
2022-09-26T01:11:23.491Z,6.70
2022-09-26T01:13:52.982Z,7.25
2022-09-26T01:16:20.638Z,6.63
2022-09-26T01:18:48.537Z,6.45
2022-09-26T01:21:40.725Z,7.22
2022-09-26T01:24:29.042Z,6.85
2022-09-26T01:27:09.873Z,7.03
2022-09-26T01:30:05.177Z,6.50
2022-09-26T01:32:51.185Z,5.63
2022-09-26T01:35:32.864Z,6.25
2022-09-26T01:38:11.856Z,6.32
2022-09-26T01:40:48.176Z,6.47
2022-09-26T01:43:33.856Z,6.28
2022-09-26T01:46:23.843Z,6.50
2022-09-26T01:48:59.136Z,6.40
2022-09-26T01:51:35.529Z,6.68
2022-09-26T01:54:10.140Z,6.43
2022-09-26T01:56:39.816Z,5.78
2022-09-26T01:59:18.697Z,5.75
2022-09-26T02:01:48.426Z,6.35
2022-09-26T02:04:21.716Z,6.05
2022-09-26T02:06:57.678Z,5.82
2022-09-26T02:09:32.443Z,5.80
2022-09-26T02:12:04.331Z,6.25
2022-09-26T02:14:35.390Z,5.78
2022-09-26T02:19:56.860Z,5.30
2022-09-26T02:22:30.517Z,5.68
2022-09-26T02:24:58.028Z,5.55
2022-09-26T02:27:26.705Z,5.25
2022-09-26T02:29:54.048Z,5.10
2022-09-26T02:32:32.025Z,5.18
2022-09-26T02:35:00.230Z,5.25
2022-09-26T02:37:28.993Z,5.45
2022-09-26T02:39:56.853Z,5.03
2022-09-26T02:42:36.830Z,5.05
2022-09-26T02:45:06.939Z,5.00
2022-09-26T02:47:48.577Z,4.83
2022-09-26T02:50:28.206Z,5.57
2022-09-26T02:52:55.387Z,5.28
2022-09-26T02:55:34.827Z,5.25
2022-09-26T02:58:36.778Z,5.05
2022-09-26T03:01:27.401Z,5.45
2022-09-26T03:04:05.292Z,5.10
2022-09-26T03:06:39.713Z,5.03
2022-09-26T03:09:07.752Z,5.00
2022-09-26T03:11:36.058Z,4.95
2022-09-26T03:14:04.237Z,4.85
2022-09-26T03:16:36.678Z,5.28
2022-09-26T03:19:16.580Z,5.28
2022-09-26T03:21:45.442Z,5.10
2022-09-26T03:24:13.689Z,5.22
2022-09-26T03:26:42.140Z,4.40
2022-09-26T03:29:09.364Z,4.97
2022-09-26T03:31:36.793Z,5.10
2022-09-26T03:34:03.729Z,5.07
2022-09-26T03:36:32.317Z,6.00
2022-09-26T03:38:59.643Z,5.57
2022-09-26T03:41:26.636Z,5.07
2022-09-26T03:43:53.832Z,5.40
2022-09-26T03:46:20.782Z,5.38
2022-09-26T03:48:47.888Z,5.28
2022-09-26T03:51:15.047Z,5.47
2022-09-26T03:53:43.816Z,6.57
2022-09-26T03:56:13.541Z,6.35
2022-09-26T03:58:41.014Z,5.70
2022-09-26T04:01:19.784Z,6.20
2022-09-26T04:03:50.535Z,6.13
2022-09-26T04:06:20.612Z,5.85
2022-09-26T04:08:50.066Z,5.75
2022-09-26T04:11:20.380Z,6.32
2022-09-26T04:13:53.247Z,6.78
2022-09-26T04:16:23.256Z,5.43
2022-09-26T04:18:56.796Z,6.47
2022-09-26T04:21:24.680Z,6.47
2022-09-26T04:23:53.491Z,6.18
2022-09-26T04:26:23.578Z,5.90
2022-09-26T04:28:55.521Z,6.00
2022-09-26T04:31:24.066Z,6.60
2022-09-26T04:33:51.673Z,6.25
2022-09-26T04:36:18.726Z,6.03
2022-09-26T04:38:45.634Z,6.38
2022-09-26T04:41:17.292Z,6.00
2022-09-26T04:43:44.557Z,7.22
2022-09-26T04:46:23.782Z,7.30
2022-09-26T04:48:55.945Z,7.15
2022-09-26T04:51:25.106Z,6.25
2022-09-26T04:53:52.486Z,7.13
2022-09-26T04:56:22.337Z,6.00
2022-09-26T04:58:49.718Z,6.03
2022-09-26T05:01:20.030Z,6.38
2022-09-26T05:03:47.343Z,6.25
2022-09-26T05:06:15.633Z,6.10
2022-09-26T05:08:45.346Z,5.65
2022-09-26T05:11:13.523Z,6.20
2022-09-26T05:13:40.526Z,6.13
2022-09-26T05:16:11.396Z,5.75
2022-09-26T05:18:39.390Z,5.68
2022-09-26T05:21:07.646Z,5.80
2022-09-26T05:23:53.931Z,5.72
2022-09-26T05:26:28.058Z,5.55
2022-09-26T05:29:07.781Z,9.85
2022-09-26T05:31:37.727Z,5.93
2022-09-26T05:34:13.094Z,5.70
2022-09-26T05:36:43.187Z,5.45
2022-09-26T05:39:30.219Z,5.05
2022-09-26T05:41:58.911Z,6.95
2022-09-26T05:44:26.714Z,5.20
2022-09-26T05:46:53.758Z,4.28
2022-09-26T05:49:20.774Z,4.95
2022-09-26T05:51:47.734Z,5.10
2022-09-26T05:54:14.984Z,5.05
2022-09-26T05:56:41.962Z,5.00
2022-09-26T05:59:09.385Z,5.53
2022-09-26T06:01:36.496Z,5.55
2022-09-26T06:04:03.658Z,5.28
2022-09-26T06:06:30.601Z,4.80
2022-09-26T06:08:57.844Z,4.50
2022-09-26T06:11:27.574Z,4.35
2022-09-26T06:13:55.921Z,4.50
2022-09-26T06:16:22.994Z,4.75
2022-09-26T06:18:52.587Z,5.53
2022-09-26T06:21:20.794Z,5.40
2022-09-26T06:23:47.828Z,4.63
2022-09-26T06:26:27.082Z,4.55
2022-09-26T06:29:00.289Z,3.80
2022-09-26T06:31:28.878Z,4.22
2022-09-26T06:33:56.354Z,4.35
2022-09-26T06:36:24.870Z,4.15
2022-09-26T06:38:54.872Z,4.22
2022-09-26T06:41:22.011Z,7.43
2022-09-26T06:43:50.029Z,4.15
2022-09-26T06:46:17.234Z,4.18
2022-09-26T06:48:44.467Z,4.95
2022-09-26T06:51:13.933Z,5.18
2022-09-26T06:53:41.716Z,5.47
2022-09-26T06:56:08.759Z,5.60
2022-09-26T06:58:35.759Z,4.70
2022-09-26T07:01:03.049Z,4.28
2022-09-26T07:03:30.378Z,4.65
2022-09-26T07:05:57.815Z,4.75
2022-09-26T07:08:49.979Z,4.65
2022-09-26T07:11:35.190Z,4.68
2022-09-26T07:14:02.193Z,4.25
2022-09-26T07:16:29.964Z,4.00
2022-09-26T07:18:57.915Z,3.88
2022-09-26T07:21:24.995Z,3.67
2022-09-26T07:23:56.261Z,3.63
2022-09-26T07:26:23.200Z,3.40
2022-09-26T07:28:54.450Z,3.47
2022-09-26T07:31:23.797Z,2.97
2022-09-26T07:33:50.968Z,3.40
2022-09-26T07:36:18.631Z,3.85
2022-09-26T07:38:48.719Z,3.38
2022-09-26T07:41:16.453Z,3.33
2022-09-26T07:44:34.566Z,2.92
2022-09-26T07:46:49.024Z,3.28
2022-09-26T07:49:34.676Z,3.45
2022-09-26T07:52:01.815Z,3.00
2022-09-26T07:54:28.843Z,2.65
2022-09-26T07:56:55.855Z,2.85
2022-09-26T07:59:25.582Z,3.20
2022-09-26T08:01:54.276Z,2.78
2022-09-26T08:04:21.300Z,2.58
2022-09-26T08:06:50.318Z,2.40
2022-09-26T08:09:17.481Z,2.45
2022-09-26T08:11:44.542Z,2.85
2022-09-26T08:14:11.984Z,2.60
2022-09-26T08:16:42.155Z,2.53
2022-09-26T08:19:17.697Z,2.67
2022-09-26T08:21:44.644Z,2.65
2022-09-26T08:24:11.778Z,2.55
2022-09-26T08:26:44.176Z,2.30
2022-09-26T08:29:12.441Z,2.70
2022-09-26T08:31:39.927Z,2.50
2022-09-26T08:34:08.161Z,2.60
2022-09-26T08:36:38.038Z,2.90
2022-09-26T08:39:05.565Z,2.60
2022-09-26T08:41:54.219Z,2.78
2022-09-26T08:44:53.246Z,2.70
2022-09-26T08:47:42.881Z,2.55
2022-09-26T08:50:33.359Z,2.45
2022-09-26T08:53:09.275Z,2.65
2022-09-26T08:55:43.583Z,2.45
2022-09-26T08:58:28.598Z,2.80
2022-09-26T09:01:02.960Z,2.08
2022-09-26T09:03:48.941Z,2.22
2022-09-26T09:06:17.136Z,2.30
2022-09-26T09:08:52.444Z,2.40
2022-09-26T09:11:53.105Z,2.17
2022-09-26T09:15:13.792Z,2.28
2022-09-26T09:17:52.172Z,2.05
2022-09-26T09:20:39.637Z,1.92
2022-09-26T09:23:36.803Z,2.05
2022-09-26T09:29:25.002Z,1.50
2022-09-26T09:31:54.422Z,1.98
2022-09-26T09:34:31.480Z,1.90
2022-09-26T09:37:04.263Z,1.98
2022-09-26T09:39:40.455Z,2.28
2022-09-26T09:42:18.367Z,1.90
2022-09-26T09:44:49.313Z,1.80
2022-09-26T09:49:47.022Z,1.65
2022-09-26T09:52:21.920Z,2.17
2022-09-26T09:54:59.588Z,1.60
2022-09-26T09:57:33.275Z,1.50
2022-09-26T10:00:15.998Z,1.50
2022-09-26T10:03:22.658Z,2.53
2022-09-26T10:05:55.737Z,1.40
2022-09-26T10:08:28.186Z,1.45
2022-09-26T10:11:11.661Z,1.58
2022-09-26T10:13:42.769Z,2.42
2022-09-26T10:16:14.498Z,1.52
2022-09-26T10:19:07.438Z,2.05
2022-09-26T10:21:43.547Z,1.35
2022-09-26T10:24:34.490Z,1.70
2022-09-26T10:27:23.604Z,1.42
2022-09-26T10:29:59.263Z,1.27
2022-09-26T10:32:27.072Z,1.70
2022-09-26T10:35:21.559Z,1.67
2022-09-26T10:38:03.124Z,1.27
2022-09-26T10:40:45.489Z,1.10
2022-09-26T10:43:32.169Z,1.10
2022-09-26T10:46:15.501Z,1.10
2022-09-26T10:48:55.404Z,1.40
2022-09-26T10:51:29.639Z,1.33
2022-09-26T10:54:12.268Z,1.52
2022-09-26T10:56:44.158Z,1.33
2022-09-26T10:59:13.793Z,1.25
2022-09-26T11:01:48.690Z,1.00
2022-09-26T11:04:40.360Z,1.30
2022-09-26T11:07:10.794Z,1.25
2022-09-26T11:09:38.503Z,1.50
2022-09-26T11:12:22.522Z,3.83
2022-09-26T11:14:53.342Z,1.40
2022-09-26T11:17:20.269Z,1.58
2022-09-26T11:20:00.347Z,1.48
2022-09-26T11:22:41.398Z,2.00
2022-09-26T11:27:55.625Z,1.60
2022-09-26T11:30:22.990Z,1.50
2022-09-26T11:32:54.111Z,1.60
2022-09-26T11:35:33.535Z,1.10
2022-09-26T11:38:39.928Z,1.42
2022-09-26T11:41:42.187Z,1.20
2022-09-26T11:44:17.880Z,1.15
2022-09-26T11:47:07.015Z,1.23
2022-09-26T11:50:19.122Z,1.20
2022-09-26T11:52:58.117Z,1.50
2022-09-26T11:55:28.357Z,1.50
2022-09-26T11:58:07.170Z,1.60
2022-09-26T12:01:00.623Z,1.20
2022-09-26T12:03:43.625Z,1.30
2022-09-26T12:06:32.006Z,1.27
2022-09-26T12:09:24.154Z,1.60
2022-09-26T12:12:09.694Z,1.50
2022-09-26T12:14:58.687Z,1.58
2022-09-26T12:17:41.114Z,1.50
2022-09-26T12:20:14.313Z,1.40
2022-09-26T12:22:57.400Z,1.30
2022-09-26T12:25:27.042Z,1.10
2022-09-26T12:28:25.590Z,1.40
2022-09-26T12:31:00.855Z,0.98
2022-09-26T12:33:41.449Z,1.30
2022-09-26T12:36:11.129Z,1.15
2022-09-26T12:39:15.693Z,1.38
2022-09-26T12:42:10.451Z,1.63
2022-09-26T12:44:37.348Z,1.27
2022-09-26T12:47:54.142Z,1.35
2022-09-26T12:50:39.606Z,1.20
2022-09-26T12:53:21.606Z,1.52
2022-09-26T12:56:11.384Z,1.25
2022-09-26T12:58:47.080Z,1.30
2022-09-26T13:01:26.867Z,1.42
2022-09-26T13:04:17.167Z,1.40
2022-09-26T13:07:07.619Z,1.27
2022-09-26T13:10:00.737Z,1.55
2022-09-26T13:12:39.043Z,1.40
2022-09-26T13:15:27.108Z,1.20
2022-09-26T13:18:01.309Z,1.65
2022-09-26T13:20:37.116Z,1.38
2022-09-26T13:23:36.048Z,1.30
2022-09-26T13:26:09.055Z,1.33
2022-09-26T13:29:00.580Z,1.35
2022-09-26T13:31:41.805Z,1.42
2022-09-26T13:34:22.334Z,1.40
2022-09-26T13:36:50.167Z,1.63
2022-09-26T13:39:22.653Z,1.38
2022-09-26T13:42:03.836Z,1.27
2022-09-26T13:44:45.846Z,1.35
2022-09-26T13:47:49.982Z,1.20
2022-09-26T13:50:26.092Z,1.35
2022-09-26T13:53:00.950Z,1.50
2022-09-26T13:55:30.122Z,1.50
2022-09-26T13:58:03.198Z,1.20
2022-09-26T14:00:30.570Z,1.35
2022-09-26T14:03:19.599Z,1.25
2022-09-26T14:05:52.837Z,1.40
2022-09-26T14:08:44.117Z,1.55
2022-09-26T14:11:30.820Z,1.48
2022-09-26T14:14:21.668Z,1.60
2022-09-26T14:17:06.613Z,1.40
2022-09-26T14:19:38.469Z,1.70
2022-09-26T14:22:23.403Z,1.77
2022-09-26T14:24:51.798Z,1.60
2022-09-26T14:27:18.687Z,1.55
2022-09-26T14:30:02.233Z,7.38
2022-09-26T14:32:40.020Z,1.80
2022-09-26T14:35:28.808Z,2.20
2022-09-26T14:38:20.638Z,1.73
2022-09-26T14:40:58.669Z,1.95
2022-09-26T14:43:29.923Z,1.70
2022-09-26T14:46:06.115Z,1.80
2022-09-26T14:48:41.705Z,1.90
2022-09-26T14:51:11.950Z,3.70
2022-09-26T14:53:50.220Z,4.97
2022-09-26T14:56:28.949Z,3.50
2022-09-26T14:59:20.620Z,2.50
2022-09-26T15:01:48.051Z,2.08
2022-09-26T15:04:20.137Z,1.90
2022-09-26T15:06:51.014Z,2.00
2022-09-26T15:09:25.432Z,3.70
2022-09-26T15:11:58.517Z,4.72
2022-09-26T15:14:30.766Z,18.88
2022-09-26T15:17:01.922Z,47.53
2022-09-26T15:19:34.630Z,33.63
2022-09-26T15:22:13.321Z,46.13
2022-09-26T15:24:40.447Z,19.88
2022-09-26T15:27:27.403Z,24.80
2022-09-26T15:30:01.719Z,16.92
2022-09-26T15:32:30.744Z,8.00
2022-09-26T15:35:00.123Z,3.53
2022-09-26T15:37:33.785Z,4.63
2022-09-26T15:40:36.368Z,3.00
2022-09-26T15:43:22.423Z,2.35
2022-09-26T15:45:59.667Z,3.00
2022-09-26T15:48:32.761Z,2.58
2022-09-26T15:51:08.519Z,2.47
2022-09-26T15:53:42.610Z,2.40
2022-09-26T15:56:11.812Z,2.92
2022-09-26T15:58:52.681Z,3.17
2022-09-26T16:01:22.756Z,3.65
2022-09-26T16:04:05.657Z,3.00
2022-09-26T16:06:42.649Z,3.15
2022-09-26T16:09:21.487Z,4.05
2022-09-26T16:11:56.388Z,3.10
2022-09-26T16:14:48.135Z,3.67
2022-09-26T16:17:38.858Z,3.60
2022-09-26T16:20:26.126Z,3.20
2022-09-26T16:22:53.900Z,3.08
2022-09-26T16:25:22.892Z,3.00
2022-09-26T16:28:00.771Z,3.17
2022-09-26T16:30:27.749Z,3.08
2022-09-26T16:32:55.842Z,3.20
2022-09-26T16:35:29.690Z,2.90
2022-09-26T16:38:07.422Z,2.70
2022-09-26T16:40:35.818Z,3.10
2022-09-26T16:43:12.681Z,2.70
2022-09-26T16:45:51.266Z,2.83
2022-09-26T16:48:36.761Z,3.00
2022-09-26T16:51:17.295Z,2.80
2022-09-26T16:53:59.686Z,2.88
2022-09-26T16:56:28.104Z,3.00
2022-09-26T16:58:58.861Z,3.20
2022-09-26T17:01:44.354Z,3.55
2022-09-26T17:04:32.863Z,3.47
2022-09-26T17:07:09.434Z,4.75
2022-09-26T17:09:36.741Z,3.92
2022-09-26T17:12:07.903Z,5.97
2022-09-26T17:14:40.567Z,5.75
2022-09-26T17:17:22.096Z,3.95
2022-09-26T17:19:58.928Z,4.55
2022-09-26T17:22:27.791Z,4.38
2022-09-26T17:24:55.317Z,4.40
2022-09-26T17:27:27.239Z,4.03
2022-09-26T17:29:59.762Z,3.78
2022-09-26T17:32:38.278Z,3.33
2022-09-26T17:35:25.074Z,3.35
2022-09-26T17:37:52.351Z,4.85
2022-09-26T17:40:25.382Z,33.50
2022-09-26T17:42:55.566Z,23.02
2022-09-26T17:45:36.206Z,20.07
2022-09-26T17:48:07.034Z,10.50
2022-09-26T17:50:35.776Z,9.18
2022-09-26T17:53:03.483Z,8.27
2022-09-26T17:55:31.302Z,5.10
2022-09-26T17:57:58.538Z,4.22
2022-09-26T18:00:27.126Z,4.80
2022-09-26T18:02:59.779Z,4.25
2022-09-26T18:05:31.223Z,3.70
2022-09-26T18:08:04.302Z,3.40
2022-09-26T18:10:33.984Z,3.40
2022-09-26T18:13:08.279Z,3.42
2022-09-26T18:15:39.345Z,3.50
2022-09-26T18:18:14.363Z,4.03
2022-09-26T18:20:41.615Z,3.33
2022-09-26T18:23:17.072Z,3.67
2022-09-26T18:25:47.357Z,3.92
2022-09-26T18:28:17.490Z,3.85
2022-09-26T18:30:49.437Z,3.73
2022-09-26T18:33:17.858Z,3.60
2022-09-26T18:35:45.729Z,3.42
2022-09-26T18:38:13.330Z,3.38
2022-09-26T18:40:50.364Z,3.70
2022-09-26T18:43:22.909Z,3.60
2022-09-26T18:45:50.527Z,3.55
2022-09-26T18:48:36.257Z,3.38
2022-09-26T18:51:03.495Z,3.35
2022-09-26T18:53:37.240Z,3.80
2022-09-26T18:56:24.793Z,3.60
2022-09-26T18:58:52.884Z,3.78
2022-09-26T19:01:28.271Z,3.72
2022-09-26T19:03:58.770Z,3.50
2022-09-26T19:06:31.726Z,3.60
2022-09-26T19:09:02.334Z,3.90
2022-09-26T19:11:35.278Z,3.97
2022-09-26T19:14:25.725Z,4.00
2022-09-26T19:16:53.130Z,3.83
2022-09-26T19:19:20.348Z,3.90
2022-09-26T19:21:53.425Z,3.50
2022-09-26T19:24:31.777Z,3.88
2022-09-26T19:27:06.084Z,3.47
2022-09-26T19:29:43.970Z,3.65
2022-09-26T19:32:22.845Z,4.65
2022-09-26T19:34:56.392Z,3.88
2022-09-26T19:37:23.369Z,4.15
2022-09-26T19:39:50.503Z,4.43
2022-09-26T19:42:18.431Z,3.65
2022-09-26T19:44:45.603Z,4.15
2022-09-26T19:47:22.105Z,4.30
2022-09-26T19:49:51.909Z,4.07
2022-09-26T19:52:20.999Z,3.97
2022-09-26T19:54:48.900Z,4.43
2022-09-26T19:57:18.503Z,3.95
2022-09-26T19:59:46.651Z,3.70
2022-09-26T20:02:25.101Z,4.18
2022-09-26T20:04:52.327Z,4.25
2022-09-26T20:07:20.201Z,4.20
2022-09-26T20:09:47.697Z,4.15
2022-09-26T20:12:14.950Z,3.70
2022-09-26T20:14:41.949Z,4.00
2022-09-26T20:17:25.120Z,3.95
2022-09-26T20:19:58.653Z,4.38
2022-09-26T20:22:26.564Z,3.70
2022-09-26T20:24:58.021Z,4.00
2022-09-26T20:27:28.181Z,4.32
2022-09-26T20:30:15.163Z,3.70
2022-09-26T20:32:42.165Z,3.90
2022-09-26T20:35:14.187Z,6.10
2022-09-26T20:37:42.773Z,4.72
2022-09-26T20:40:19.561Z,4.18
2022-09-26T20:42:50.181Z,4.28
2022-09-26T20:45:20.726Z,3.97
2022-09-26T20:47:47.959Z,4.07
2022-09-26T20:50:17.703Z,3.85
2022-09-26T20:52:44.830Z,4.05
2022-09-26T20:55:19.418Z,4.00
2022-09-26T20:57:46.860Z,4.00
2022-09-26T21:00:19.719Z,3.88
2022-09-26T21:02:56.024Z,3.40
2022-09-26T21:05:27.260Z,3.95
2022-09-26T21:07:55.941Z,3.63
2022-09-26T21:10:26.218Z,3.40
2022-09-26T21:12:53.799Z,3.92
2022-09-26T21:15:22.876Z,3.83
2022-09-26T21:17:51.631Z,3.83
2022-09-26T21:20:28.718Z,5.53
2022-09-26T21:22:57.403Z,4.25
2022-09-26T21:25:26.540Z,4.57
2022-09-26T21:28:00.536Z,4.60
2022-09-26T21:30:28.153Z,4.20
2022-09-26T21:32:59.775Z,3.85
2022-09-26T21:35:32.221Z,4.10
2022-09-26T21:38:01.176Z,4.00
2022-09-26T21:40:31.879Z,3.55
2022-09-26T21:43:08.907Z,3.50
2022-09-26T21:45:35.875Z,3.22
2022-09-26T21:48:03.009Z,4.03
2022-09-26T21:50:30.393Z,3.55
2022-09-26T21:53:03.223Z,3.20
2022-09-26T21:55:35.819Z,3.85
2022-09-26T21:58:12.781Z,3.85
2022-09-26T22:00:40.398Z,4.28
2022-09-26T22:03:07.558Z,4.03
2022-09-26T22:05:34.637Z,3.50
2022-09-26T22:08:02.123Z,3.80
2022-09-26T22:10:29.520Z,4.05
2022-09-26T22:12:57.115Z,4.18
2022-09-26T22:15:24.224Z,2.90
2022-09-26T22:17:51.403Z,3.90
2022-09-26T22:20:18.387Z,3.45
2022-09-26T22:22:45.574Z,4.50
2022-09-26T22:25:12.613Z,4.35
2022-09-26T22:27:40.014Z,5.00
2022-09-26T22:30:08.356Z,4.10
2022-09-26T22:32:35.374Z,4.70
2022-09-26T22:35:02.578Z,4.70
2022-09-26T22:37:29.557Z,4.90
2022-09-26T22:39:56.540Z,4.07
2022-09-26T22:42:23.577Z,3.85
2022-09-26T22:44:50.594Z,3.75
2022-09-26T22:47:17.592Z,3.25
2022-09-26T22:49:44.587Z,3.50
2022-09-26T22:52:11.623Z,3.38
2022-09-26T22:54:38.618Z,2.78
2022-09-26T22:57:05.659Z,3.45
2022-09-26T22:59:32.646Z,3.55
2022-09-26T23:01:59.695Z,3.30
2022-09-26T23:04:46.641Z,3.42
2022-09-26T23:07:15.786Z,3.05
2022-09-26T23:09:43.441Z,3.45
2022-09-26T23:12:11.119Z,3.20
2022-09-26T23:14:38.437Z,3.22
2022-09-26T23:17:05.546Z,3.65
2022-09-26T23:19:33.015Z,3.30
2022-09-26T23:22:00.046Z,3.40
2022-09-26T23:24:27.068Z,3.95
2022-09-26T23:26:54.066Z,3.58
2022-09-26T23:29:21.128Z,3.38
2022-09-26T23:31:48.214Z,3.42
2022-09-26T23:34:15.237Z,3.20
2022-09-26T23:36:42.345Z,3.40
2022-09-26T23:39:09.428Z,3.30
2022-09-26T23:41:36.575Z,3.63
2022-09-26T23:44:03.566Z,5.07
2022-09-26T23:46:30.645Z,3.83
2022-09-26T23:48:57.708Z,5.88
2022-09-26T23:51:24.704Z,4.85
2022-09-26T23:53:51.690Z,3.63
2022-09-26T23:56:19.034Z,3.67
2022-09-26T23:58:47.126Z,3.33
